sensor_id;sensor_type;location;lat;lon;timestamp;P1;durP1;ratioP1;P2;durP2;ratioP2
78561;SDS011;68963;52.138;5.446;2024-02-04T00:01:55;12.30;;;6.15;;
78561;SDS011;68963;52.138;5.446;2024-02-04T00:04:22;11.40;;;5.60;;
78561;SDS011;68963;52.138;5.446;2024-02-04T00:06:50;11.70;;;4.97;;
78561;SDS011;68963;52.138;5.446;2024-02-04T00:09:17;10.68;;;4.72;;
78561;SDS011;68963;52.138;5.446;2024-02-04T00:11:45;10.00;;;4.75;;
78561;SDS011;68963;52.138;5.446;2024-02-04T00:14:12;8.43;;;4.07;;
78561;SDS011;68963;52.138;5.446;2024-02-04T00:16:38;10.88;;;3.70;;
78561;SDS011;68963;52.138;5.446;2024-02-04T00:19:05;8.90;;;3.22;;
78561;SDS011;68963;52.138;5.446;2024-02-04T00:21:32;6.57;;;2.55;;
78561;SDS011;68963;52.138;5.446;2024-02-04T00:23:58;8.82;;;3.58;;
78561;SDS011;68963;52.138;5.446;2024-02-04T00:26:26;9.23;;;3.40;;
78561;SDS011;68963;52.138;5.446;2024-02-04T00:28:52;10.75;;;3.70;;
78561;SDS011;68963;52.138;5.446;2024-02-04T00:31:19;12.88;;;4.50;;
78561;SDS011;68963;52.138;5.446;2024-02-04T00:33:45;12.27;;;4.30;;
78561;SDS011;68963;52.138;5.446;2024-02-04T00:36:12;11.23;;;4.30;;
78561;SDS011;68963;52.138;5.446;2024-02-04T00:38:39;11.60;;;4.20;;
78561;SDS011;68963;52.138;5.446;2024-02-04T00:41:05;11.48;;;4.30;;
78561;SDS011;68963;52.138;5.446;2024-02-04T00:43:32;12.02;;;3.95;;
78561;SDS011;68963;52.138;5.446;2024-02-04T00:45:58;9.40;;;3.85;;
78561;SDS011;68963;52.138;5.446;2024-02-04T00:48:26;9.20;;;3.75;;
78561;SDS011;68963;52.138;5.446;2024-02-04T00:50:53;9.48;;;3.67;;
78561;SDS011;68963;52.138;5.446;2024-02-04T00:53:20;12.48;;;4.00;;
78561;SDS011;68963;52.138;5.446;2024-02-04T00:55:46;10.00;;;4.60;;
78561;SDS011;68963;52.138;5.446;2024-02-04T00:58:12;15.00;;;4.68;;
78561;SDS011;68963;52.138;5.446;2024-02-04T01:00:39;13.40;;;4.90;;
78561;SDS011;68963;52.138;5.446;2024-02-04T01:03:06;17.25;;;5.90;;
78561;SDS011;68963;52.138;5.446;2024-02-04T01:05:32;17.23;;;6.40;;
78561;SDS011;68963;52.138;5.446;2024-02-04T01:07:59;19.13;;;7.00;;
78561;SDS011;68963;52.138;5.446;2024-02-04T01:10:26;18.00;;;6.78;;
78561;SDS011;68963;52.138;5.446;2024-02-04T01:12:53;18.80;;;6.45;;
78561;SDS011;68963;52.138;5.446;2024-02-04T01:15:19;18.15;;;6.68;;
78561;SDS011;68963;52.138;5.446;2024-02-04T01:17:46;19.35;;;6.97;;
78561;SDS011;68963;52.138;5.446;2024-02-04T01:20:13;20.23;;;7.15;;
78561;SDS011;68963;52.138;5.446;2024-02-04T01:22:39;19.55;;;7.22;;
78561;SDS011;68963;52.138;5.446;2024-02-04T01:25:06;22.20;;;7.05;;
78561;SDS011;68963;52.138;5.446;2024-02-04T01:27:33;20.67;;;6.72;;
78561;SDS011;68963;52.138;5.446;2024-02-04T01:30:00;18.17;;;6.88;;
78561;SDS011;68963;52.138;5.446;2024-02-04T01:32:27;14.73;;;6.13;;
78561;SDS011;68963;52.138;5.446;2024-02-04T01:34:54;20.38;;;6.57;;
78561;SDS011;68963;52.138;5.446;2024-02-04T01:37:20;17.38;;;6.93;;
78561;SDS011;68963;52.138;5.446;2024-02-04T01:39:47;20.50;;;7.25;;
78561;SDS011;68963;52.138;5.446;2024-02-04T01:42:13;19.92;;;6.43;;
78561;SDS011;68963;52.138;5.446;2024-02-04T01:44:40;16.95;;;6.60;;
78561;SDS011;68963;52.138;5.446;2024-02-04T01:47:07;18.35;;;6.68;;
78561;SDS011;68963;52.138;5.446;2024-02-04T01:49:33;18.60;;;6.55;;
78561;SDS011;68963;52.138;5.446;2024-02-04T01:52:00;20.38;;;6.82;;
78561;SDS011;68963;52.138;5.446;2024-02-04T01:54:28;16.77;;;6.60;;
78561;SDS011;68963;52.138;5.446;2024-02-04T01:56:58;22.85;;;6.60;;
78561;SDS011;68963;52.138;5.446;2024-02-04T01:59:28;18.30;;;6.70;;
78561;SDS011;68963;52.138;5.446;2024-02-04T02:02:00;17.67;;;6.57;;
78561;SDS011;68963;52.138;5.446;2024-02-04T02:04:27;18.75;;;6.32;;
78561;SDS011;68963;52.138;5.446;2024-02-04T02:06:54;15.85;;;5.55;;
78561;SDS011;68963;52.138;5.446;2024-02-04T02:09:21;15.52;;;5.85;;
78561;SDS011;68963;52.138;5.446;2024-02-04T02:11:51;16.00;;;5.32;;
78561;SDS011;68963;52.138;5.446;2024-02-04T02:14:24;14.10;;;5.28;;
78561;SDS011;68963;52.138;5.446;2024-02-04T02:16:54;14.48;;;4.97;;
78561;SDS011;68963;52.138;5.446;2024-02-04T02:19:40;15.70;;;5.20;;
78561;SDS011;68963;52.138;5.446;2024-02-04T02:22:29;15.07;;;5.47;;
78561;SDS011;68963;52.138;5.446;2024-02-04T02:25:06;17.00;;;5.28;;
78561;SDS011;68963;52.138;5.446;2024-02-04T02:27:34;14.43;;;5.65;;
78561;SDS011;68963;52.138;5.446;2024-02-04T02:30:00;13.00;;;5.28;;
78561;SDS011;68963;52.138;5.446;2024-02-04T02:32:27;19.15;;;5.68;;
78561;SDS011;68963;52.138;5.446;2024-02-04T02:34:53;15.20;;;5.72;;
78561;SDS011;68963;52.138;5.446;2024-02-04T02:37:22;17.55;;;5.85;;
78561;SDS011;68963;52.138;5.446;2024-02-04T02:42:42;13.73;;;5.35;;
78561;SDS011;68963;52.138;5.446;2024-02-04T02:45:11;16.50;;;5.60;;
78561;SDS011;68963;52.138;5.446;2024-02-04T02:50:07;17.35;;;4.85;;
78561;SDS011;68963;52.138;5.446;2024-02-04T02:52:35;13.45;;;4.90;;
78561;SDS011;68963;52.138;5.446;2024-02-04T02:55:01;14.63;;;5.40;;
78561;SDS011;68963;52.138;5.446;2024-02-04T02:57:28;14.02;;;5.18;;
78561;SDS011;68963;52.138;5.446;2024-02-04T02:59:55;15.02;;;5.07;;
78561;SDS011;68963;52.138;5.446;2024-02-04T03:02:21;18.35;;;5.82;;
78561;SDS011;68963;52.138;5.446;2024-02-04T03:04:48;18.45;;;5.22;;
78561;SDS011;68963;52.138;5.446;2024-02-04T03:07:14;18.58;;;5.80;;
78561;SDS011;68963;52.138;5.446;2024-02-04T03:09:41;17.92;;;5.53;;
78561;SDS011;68963;52.138;5.446;2024-02-04T03:12:08;15.18;;;5.88;;
78561;SDS011;68963;52.138;5.446;2024-02-04T03:14:35;18.83;;;5.93;;
78561;SDS011;68963;52.138;5.446;2024-02-04T03:17:01;15.85;;;5.82;;
78561;SDS011;68963;52.138;5.446;2024-02-04T03:19:28;13.88;;;5.93;;
78561;SDS011;68963;52.138;5.446;2024-02-04T03:21:54;14.73;;;5.82;;
78561;SDS011;68963;52.138;5.446;2024-02-04T03:24:21;19.80;;;6.20;;
78561;SDS011;68963;52.138;5.446;2024-02-04T03:26:47;20.58;;;6.50;;
78561;SDS011;68963;52.138;5.446;2024-02-04T03:29:14;19.95;;;6.15;;
78561;SDS011;68963;52.138;5.446;2024-02-04T03:31:40;18.23;;;6.00;;
78561;SDS011;68963;52.138;5.446;2024-02-04T03:34:07;12.15;;;5.00;;
78561;SDS011;68963;52.138;5.446;2024-02-04T03:36:36;18.02;;;5.55;;
78561;SDS011;68963;52.138;5.446;2024-02-04T03:39:03;22.92;;;5.20;;
78561;SDS011;68963;52.138;5.446;2024-02-04T03:41:30;14.73;;;5.03;;
78561;SDS011;68963;52.138;5.446;2024-02-04T03:43:56;14.35;;;4.80;;
78561;SDS011;68963;52.138;5.446;2024-02-04T03:46:23;11.88;;;4.22;;
78561;SDS011;68963;52.138;5.446;2024-02-04T03:48:49;17.95;;;4.55;;
78561;SDS011;68963;52.138;5.446;2024-02-04T03:51:17;15.68;;;3.70;;
78561;SDS011;68963;52.138;5.446;2024-02-04T03:53:44;12.13;;;3.35;;
78561;SDS011;68963;52.138;5.446;2024-02-04T03:56:11;11.95;;;2.88;;
78561;SDS011;68963;52.138;5.446;2024-02-04T03:58:38;11.95;;;2.92;;
78561;SDS011;68963;52.138;5.446;2024-02-04T04:01:05;9.48;;;2.78;;
78561;SDS011;68963;52.138;5.446;2024-02-04T04:03:31;8.93;;;2.55;;
78561;SDS011;68963;52.138;5.446;2024-02-04T04:05:58;12.10;;;2.70;;
78561;SDS011;68963;52.138;5.446;2024-02-04T04:08:25;7.80;;;2.35;;
78561;SDS011;68963;52.138;5.446;2024-02-04T04:10:51;5.88;;;2.08;;
78561;SDS011;68963;52.138;5.446;2024-02-04T04:13:18;7.28;;;1.95;;
78561;SDS011;68963;52.138;5.446;2024-02-04T04:15:44;7.40;;;2.10;;
78561;SDS011;68963;52.138;5.446;2024-02-04T04:18:11;10.48;;;2.05;;
78561;SDS011;68963;52.138;5.446;2024-02-04T04:20:40;8.40;;;2.30;;
78561;SDS011;68963;52.138;5.446;2024-02-04T04:23:06;6.93;;;2.30;;
78561;SDS011;68963;52.138;5.446;2024-02-04T04:25:33;7.05;;;2.28;;
78561;SDS011;68963;52.138;5.446;2024-02-04T04:28:00;11.02;;;2.70;;
78561;SDS011;68963;52.138;5.446;2024-02-04T04:30:27;9.75;;;2.63;;
78561;SDS011;68963;52.138;5.446;2024-02-04T04:32:53;11.02;;;2.67;;
78561;SDS011;68963;52.138;5.446;2024-02-04T04:35:20;10.93;;;2.85;;
78561;SDS011;68963;52.138;5.446;2024-02-04T04:37:46;10.18;;;2.80;;
78561;SDS011;68963;52.138;5.446;2024-02-04T04:40:13;11.55;;;2.92;;
78561;SDS011;68963;52.138;5.446;2024-02-04T04:42:39;10.25;;;2.97;;
78561;SDS011;68963;52.138;5.446;2024-02-04T04:45:06;11.05;;;3.00;;
78561;SDS011;68963;52.138;5.446;2024-02-04T04:47:34;11.45;;;3.42;;
78561;SDS011;68963;52.138;5.446;2024-02-04T04:50:01;10.65;;;3.30;;
78561;SDS011;68963;52.138;5.446;2024-02-04T04:52:28;13.27;;;3.53;;
78561;SDS011;68963;52.138;5.446;2024-02-04T04:54:54;11.45;;;2.70;;
78561;SDS011;68963;52.138;5.446;2024-02-04T04:57:21;10.13;;;3.65;;
78561;SDS011;68963;52.138;5.446;2024-02-04T04:59:48;7.15;;;3.10;;
78561;SDS011;68963;52.138;5.446;2024-02-04T05:02:15;9.30;;;3.05;;
78561;SDS011;68963;52.138;5.446;2024-02-04T05:04:44;10.75;;;3.03;;
78561;SDS011;68963;52.138;5.446;2024-02-04T05:07:11;9.43;;;2.88;;
78561;SDS011;68963;52.138;5.446;2024-02-04T05:09:38;9.05;;;2.50;;
78561;SDS011;68963;52.138;5.446;2024-02-04T05:12:07;10.35;;;2.67;;
78561;SDS011;68963;52.138;5.446;2024-02-04T05:14:34;7.70;;;2.50;;
78561;SDS011;68963;52.138;5.446;2024-02-04T05:17:01;9.35;;;2.50;;
78561;SDS011;68963;52.138;5.446;2024-02-04T05:19:27;7.07;;;2.25;;
78561;SDS011;68963;52.138;5.446;2024-02-04T05:21:54;12.15;;;2.78;;
78561;SDS011;68963;52.138;5.446;2024-02-04T05:24:21;10.23;;;2.60;;
78561;SDS011;68963;52.138;5.446;2024-02-04T05:26:47;10.43;;;2.83;;
78561;SDS011;68963;52.138;5.446;2024-02-04T05:29:14;11.50;;;2.88;;
78561;SDS011;68963;52.138;5.446;2024-02-04T05:31:41;11.10;;;3.00;;
78561;SDS011;68963;52.138;5.446;2024-02-04T05:34:09;9.52;;;3.00;;
78561;SDS011;68963;52.138;5.446;2024-02-04T05:36:36;12.35;;;3.35;;
78561;SDS011;68963;52.138;5.446;2024-02-04T05:39:10;9.07;;;3.53;;
78561;SDS011;68963;52.138;5.446;2024-02-04T05:41:38;10.77;;;3.35;;
78561;SDS011;68963;52.138;5.446;2024-02-04T05:44:06;10.15;;;3.30;;
78561;SDS011;68963;52.138;5.446;2024-02-04T05:46:35;9.43;;;3.22;;
78561;SDS011;68963;52.138;5.446;2024-02-04T05:49:02;15.00;;;4.20;;
78561;SDS011;68963;52.138;5.446;2024-02-04T05:51:31;10.45;;;3.22;;
78561;SDS011;68963;52.138;5.446;2024-02-04T05:53:59;10.52;;;3.35;;
78561;SDS011;68963;52.138;5.446;2024-02-04T05:56:26;12.30;;;3.50;;
78561;SDS011;68963;52.138;5.446;2024-02-04T05:58:52;11.43;;;3.30;;
78561;SDS011;68963;52.138;5.446;2024-02-04T06:01:19;10.52;;;3.20;;
78561;SDS011;68963;52.138;5.446;2024-02-04T06:03:45;10.32;;;3.42;;
78561;SDS011;68963;52.138;5.446;2024-02-04T06:06:15;14.98;;;3.03;;
78561;SDS011;68963;52.138;5.446;2024-02-04T06:08:42;13.95;;;3.00;;
78561;SDS011;68963;52.138;5.446;2024-02-04T06:11:10;6.55;;;2.50;;
78561;SDS011;68963;52.138;5.446;2024-02-04T06:13:39;8.00;;;2.70;;
78561;SDS011;68963;52.138;5.446;2024-02-04T06:16:06;13.27;;;3.10;;
78561;SDS011;68963;52.138;5.446;2024-02-04T06:18:34;10.40;;;3.30;;
78561;SDS011;68963;52.138;5.446;2024-02-04T06:21:06;12.32;;;3.90;;
78561;SDS011;68963;52.138;5.446;2024-02-04T06:23:33;9.82;;;3.13;;
78561;SDS011;68963;52.138;5.446;2024-02-04T06:26:01;10.70;;;3.70;;
78561;SDS011;68963;52.138;5.446;2024-02-04T06:28:27;10.32;;;3.72;;
78561;SDS011;68963;52.138;5.446;2024-02-04T06:30:55;10.60;;;3.83;;
78561;SDS011;68963;52.138;5.446;2024-02-04T06:33:22;13.07;;;3.92;;
78561;SDS011;68963;52.138;5.446;2024-02-04T06:35:51;11.90;;;4.60;;
78561;SDS011;68963;52.138;5.446;2024-02-04T06:38:18;11.88;;;4.13;;
78561;SDS011;68963;52.138;5.446;2024-02-04T06:40:44;12.07;;;4.38;;
78561;SDS011;68963;52.138;5.446;2024-02-04T06:43:11;16.73;;;4.75;;
78561;SDS011;68963;52.138;5.446;2024-02-04T06:45:37;11.55;;;4.47;;
78561;SDS011;68963;52.138;5.446;2024-02-04T06:48:04;16.52;;;5.25;;
78561;SDS011;68963;52.138;5.446;2024-02-04T06:50:31;13.32;;;5.00;;
78561;SDS011;68963;52.138;5.446;2024-02-04T06:52:58;15.95;;;5.85;;
78561;SDS011;68963;52.138;5.446;2024-02-04T06:55:24;15.93;;;6.40;;
78561;SDS011;68963;52.138;5.446;2024-02-04T06:57:51;16.35;;;6.18;;
78561;SDS011;68963;52.138;5.446;2024-02-04T07:00:18;14.95;;;6.18;;
78561;SDS011;68963;52.138;5.446;2024-02-04T07:02:44;16.33;;;6.30;;
78561;SDS011;68963;52.138;5.446;2024-02-04T07:05:11;16.58;;;6.40;;
78561;SDS011;68963;52.138;5.446;2024-02-04T07:07:37;16.85;;;6.68;;
78561;SDS011;68963;52.138;5.446;2024-02-04T07:10:04;18.00;;;7.13;;
78561;SDS011;68963;52.138;5.446;2024-02-04T07:12:32;17.02;;;7.15;;
78561;SDS011;68963;52.138;5.446;2024-02-04T07:14:59;17.83;;;6.85;;
78561;SDS011;68963;52.138;5.446;2024-02-04T07:17:25;16.50;;;6.75;;
78561;SDS011;68963;52.138;5.446;2024-02-04T07:19:52;19.58;;;7.25;;
78561;SDS011;68963;52.138;5.446;2024-02-04T07:22:18;21.00;;;7.32;;
78561;SDS011;68963;52.138;5.446;2024-02-04T07:24:45;20.88;;;7.10;;
78561;SDS011;68963;52.138;5.446;2024-02-04T07:27:12;16.85;;;6.68;;
78561;SDS011;68963;52.138;5.446;2024-02-04T07:29:38;16.98;;;6.30;;
78561;SDS011;68963;52.138;5.446;2024-02-04T07:32:05;17.00;;;6.55;;
78561;SDS011;68963;52.138;5.446;2024-02-04T07:34:32;14.25;;;6.60;;
78561;SDS011;68963;52.138;5.446;2024-02-04T07:36:58;18.48;;;7.82;;
78561;SDS011;68963;52.138;5.446;2024-02-04T07:39:25;18.75;;;7.40;;
78561;SDS011;68963;52.138;5.446;2024-02-04T07:41:52;19.00;;;7.60;;
78561;SDS011;68963;52.138;5.446;2024-02-04T07:44:20;14.50;;;6.82;;
78561;SDS011;68963;52.138;5.446;2024-02-04T07:46:46;15.48;;;6.63;;
78561;SDS011;68963;52.138;5.446;2024-02-04T07:49:13;15.20;;;6.70;;
78561;SDS011;68963;52.138;5.446;2024-02-04T07:51:40;15.30;;;6.20;;
78561;SDS011;68963;52.138;5.446;2024-02-04T07:54:06;14.73;;;6.22;;
78561;SDS011;68963;52.138;5.446;2024-02-04T07:56:33;13.98;;;5.88;;
78561;SDS011;68963;52.138;5.446;2024-02-04T07:58:59;13.68;;;6.25;;
78561;SDS011;68963;52.138;5.446;2024-02-04T08:01:26;15.10;;;5.38;;
78561;SDS011;68963;52.138;5.446;2024-02-04T08:03:53;12.32;;;5.30;;
78561;SDS011;68963;52.138;5.446;2024-02-04T08:06:20;11.50;;;5.10;;
78561;SDS011;68963;52.138;5.446;2024-02-04T08:08:46;12.98;;;4.30;;
78561;SDS011;68963;52.138;5.446;2024-02-04T08:11:17;11.43;;;3.80;;
78561;SDS011;68963;52.138;5.446;2024-02-04T08:13:44;14.70;;;4.47;;
78561;SDS011;68963;52.138;5.446;2024-02-04T08:16:11;11.23;;;3.63;;
78561;SDS011;68963;52.138;5.446;2024-02-04T08:18:39;9.13;;;3.42;;
78561;SDS011;68963;52.138;5.446;2024-02-04T08:21:06;8.00;;;3.33;;
78561;SDS011;68963;52.138;5.446;2024-02-04T08:23:32;7.43;;;2.88;;
78561;SDS011;68963;52.138;5.446;2024-02-04T08:25:59;8.25;;;2.70;;
78561;SDS011;68963;52.138;5.446;2024-02-04T08:28:26;8.63;;;2.70;;
78561;SDS011;68963;52.138;5.446;2024-02-04T08:30:52;9.10;;;2.60;;
78561;SDS011;68963;52.138;5.446;2024-02-04T08:33:19;8.25;;;3.03;;
78561;SDS011;68963;52.138;5.446;2024-02-04T08:35:46;9.82;;;2.60;;
78561;SDS011;68963;52.138;5.446;2024-02-04T08:38:14;8.90;;;2.85;;
78561;SDS011;68963;52.138;5.446;2024-02-04T08:40:40;9.32;;;2.30;;
78561;SDS011;68963;52.138;5.446;2024-02-04T08:43:07;8.02;;;2.65;;
78561;SDS011;68963;52.138;5.446;2024-02-04T08:45:34;5.82;;;2.13;;
78561;SDS011;68963;52.138;5.446;2024-02-04T08:48:00;8.65;;;2.15;;
78561;SDS011;68963;52.138;5.446;2024-02-04T08:50:27;6.15;;;2.03;;
78561;SDS011;68963;52.138;5.446;2024-02-04T08:52:53;7.10;;;2.30;;
78561;SDS011;68963;52.138;5.446;2024-02-04T08:55:20;5.90;;;2.33;;
78561;SDS011;68963;52.138;5.446;2024-02-04T08:57:47;8.75;;;2.80;;
78561;SDS011;68963;52.138;5.446;2024-02-04T09:00:16;7.20;;;2.50;;
78561;SDS011;68963;52.138;5.446;2024-02-04T09:02:43;7.93;;;2.72;;
78561;SDS011;68963;52.138;5.446;2024-02-04T09:05:10;7.97;;;3.13;;
78561;SDS011;68963;52.138;5.446;2024-02-04T09:07:36;10.65;;;3.72;;
78561;SDS011;68963;52.138;5.446;2024-02-04T09:10:03;9.27;;;4.03;;
78561;SDS011;68963;52.138;5.446;2024-02-04T09:12:30;10.65;;;4.03;;
78561;SDS011;68963;52.138;5.446;2024-02-04T09:14:57;12.90;;;4.80;;
78561;SDS011;68963;52.138;5.446;2024-02-04T09:17:24;10.80;;;4.40;;
78561;SDS011;68963;52.138;5.446;2024-02-04T09:19:50;14.05;;;5.20;;
78561;SDS011;68963;52.138;5.446;2024-02-04T09:22:17;11.43;;;4.95;;
78561;SDS011;68963;52.138;5.446;2024-02-04T09:24:44;11.80;;;4.95;;
78561;SDS011;68963;52.138;5.446;2024-02-04T09:27:11;11.25;;;4.63;;
78561;SDS011;68963;52.138;5.446;2024-02-04T09:29:37;10.52;;;4.20;;
78561;SDS011;68963;52.138;5.446;2024-02-04T09:32:04;10.55;;;4.63;;
78561;SDS011;68963;52.138;5.446;2024-02-04T09:34:31;12.95;;;4.00;;
78561;SDS011;68963;52.138;5.446;2024-02-04T09:36:58;10.75;;;3.38;;
78561;SDS011;68963;52.138;5.446;2024-02-04T09:39:25;8.35;;;2.95;;
78561;SDS011;68963;52.138;5.446;2024-02-04T09:41:52;7.25;;;2.95;;
78561;SDS011;68963;52.138;5.446;2024-02-04T09:44:19;9.23;;;2.67;;
78561;SDS011;68963;52.138;5.446;2024-02-04T09:46:49;8.98;;;2.80;;
78561;SDS011;68963;52.138;5.446;2024-02-04T09:49:16;7.13;;;2.58;;
78561;SDS011;68963;52.138;5.446;2024-02-04T09:51:43;7.20;;;2.28;;
78561;SDS011;68963;52.138;5.446;2024-02-04T09:54:10;6.90;;;2.50;;
78561;SDS011;68963;52.138;5.446;2024-02-04T09:56:38;6.78;;;2.13;;
78561;SDS011;68963;52.138;5.446;2024-02-04T09:59:07;6.95;;;2.15;;
78561;SDS011;68963;52.138;5.446;2024-02-04T10:01:33;6.18;;;2.05;;
78561;SDS011;68963;52.138;5.446;2024-02-04T10:04:02;7.85;;;2.03;;
78561;SDS011;68963;52.138;5.446;2024-02-04T10:06:31;6.88;;;2.00;;
78561;SDS011;68963;52.138;5.446;2024-02-04T10:08:58;6.15;;;2.05;;
78561;SDS011;68963;52.138;5.446;2024-02-04T10:11:26;6.53;;;2.10;;
78561;SDS011;68963;52.138;5.446;2024-02-04T10:13:52;6.57;;;2.00;;
78561;SDS011;68963;52.138;5.446;2024-02-04T10:16:19;7.65;;;2.15;;
78561;SDS011;68963;52.138;5.446;2024-02-04T10:18:46;6.25;;;1.80;;
78561;SDS011;68963;52.138;5.446;2024-02-04T10:23:46;5.63;;;1.88;;
78561;SDS011;68963;52.138;5.446;2024-02-04T10:26:16;5.80;;;1.73;;
78561;SDS011;68963;52.138;5.446;2024-02-04T10:28:47;5.72;;;1.70;;
78561;SDS011;68963;52.138;5.446;2024-02-04T10:31:14;5.68;;;1.42;;
78561;SDS011;68963;52.138;5.446;2024-02-04T10:33:41;5.93;;;1.40;;
78561;SDS011;68963;52.138;5.446;2024-02-04T10:36:08;5.38;;;1.55;;
78561;SDS011;68963;52.138;5.446;2024-02-04T10:38:35;5.53;;;1.17;;
78561;SDS011;68963;52.138;5.446;2024-02-04T10:41:03;5.00;;;1.20;;
78561;SDS011;68963;52.138;5.446;2024-02-04T10:43:32;5.25;;;1.13;;
78561;SDS011;68963;52.138;5.446;2024-02-04T10:46:09;6.65;;;1.40;;
78561;SDS011;68963;52.138;5.446;2024-02-04T10:48:43;5.35;;;1.10;;
78561;SDS011;68963;52.138;5.446;2024-02-04T10:53:42;5.00;;;0.90;;
78561;SDS011;68963;52.138;5.446;2024-02-04T10:56:18;3.92;;;0.98;;
78561;SDS011;68963;52.138;5.446;2024-02-04T10:58:48;3.60;;;0.98;;
78561;SDS011;68963;52.138;5.446;2024-02-04T11:01:15;3.70;;;0.80;;
78561;SDS011;68963;52.138;5.446;2024-02-04T11:03:43;3.80;;;0.90;;
78561;SDS011;68963;52.138;5.446;2024-02-04T11:06:11;5.00;;;0.90;;
78561;SDS011;68963;52.138;5.446;2024-02-04T11:08:39;3.95;;;0.90;;
78561;SDS011;68963;52.138;5.446;2024-02-04T11:11:07;3.72;;;0.70;;
78561;SDS011;68963;52.138;5.446;2024-02-04T11:13:33;2.28;;;0.70;;
78561;SDS011;68963;52.138;5.446;2024-02-04T11:16:04;3.15;;;0.90;;
78561;SDS011;68963;52.138;5.446;2024-02-04T11:18:54;4.05;;;1.05;;
78561;SDS011;68963;52.138;5.446;2024-02-04T11:21:54;5.00;;;1.05;;
78561;SDS011;68963;52.138;5.446;2024-02-04T11:24:44;3.83;;;0.90;;
78561;SDS011;68963;52.138;5.446;2024-02-04T11:27:22;3.90;;;1.00;;
78561;SDS011;68963;52.138;5.446;2024-02-04T11:29:51;3.60;;;0.90;;
78561;SDS011;68963;52.138;5.446;2024-02-04T11:32:18;3.13;;;0.90;;
78561;SDS011;68963;52.138;5.446;2024-02-04T11:34:45;4.95;;;1.05;;
78561;SDS011;68963;52.138;5.446;2024-02-04T11:37:16;3.05;;;0.80;;
78561;SDS011;68963;52.138;5.446;2024-02-04T11:39:52;4.13;;;1.20;;
78561;SDS011;68963;52.138;5.446;2024-02-04T11:42:22;4.93;;;1.40;;
78561;SDS011;68963;52.138;5.446;2024-02-04T11:44:49;3.85;;;1.35;;
78561;SDS011;68963;52.138;5.446;2024-02-04T11:47:23;4.18;;;1.50;;
78561;SDS011;68963;52.138;5.446;2024-02-04T11:49:53;5.70;;;1.52;;
78561;SDS011;68963;52.138;5.446;2024-02-04T11:52:21;4.95;;;1.75;;
78561;SDS011;68963;52.138;5.446;2024-02-04T11:54:48;6.07;;;1.70;;
78561;SDS011;68963;52.138;5.446;2024-02-04T11:57:15;5.32;;;1.92;;
78561;SDS011;68963;52.138;5.446;2024-02-04T11:59:42;6.45;;;2.00;;
78561;SDS011;68963;52.138;5.446;2024-02-04T12:02:10;6.65;;;1.98;;
78561;SDS011;68963;52.138;5.446;2024-02-04T12:04:38;7.22;;;2.05;;
78561;SDS011;68963;52.138;5.446;2024-02-04T12:07:05;6.07;;;2.22;;
78561;SDS011;68963;52.138;5.446;2024-02-04T12:09:35;8.02;;;2.10;;
78561;SDS011;68963;52.138;5.446;2024-02-04T12:12:02;7.88;;;1.80;;
78561;SDS011;68963;52.138;5.446;2024-02-04T12:14:31;6.07;;;1.88;;
78561;SDS011;68963;52.138;5.446;2024-02-04T12:16:58;6.75;;;2.10;;
78561;SDS011;68963;52.138;5.446;2024-02-04T12:19:31;7.75;;;2.30;;
78561;SDS011;68963;52.138;5.446;2024-02-04T12:21:58;7.03;;;1.90;;
78561;SDS011;68963;52.138;5.446;2024-02-04T12:24:25;7.43;;;1.83;;
78561;SDS011;68963;52.138;5.446;2024-02-04T12:30:04;4.72;;;1.50;;
78561;SDS011;68963;52.138;5.446;2024-02-04T12:32:31;5.85;;;1.85;;
78561;SDS011;68963;52.138;5.446;2024-02-04T12:34:59;6.75;;;1.67;;
78561;SDS011;68963;52.138;5.446;2024-02-04T12:37:26;8.55;;;1.80;;
78561;SDS011;68963;52.138;5.446;2024-02-04T12:39:55;7.18;;;1.63;;
78561;SDS011;68963;52.138;5.446;2024-02-04T12:42:23;8.00;;;1.70;;
78561;SDS011;68963;52.138;5.446;2024-02-04T12:44:49;7.13;;;1.85;;
78561;SDS011;68963;52.138;5.446;2024-02-04T12:47:19;6.22;;;1.70;;
78561;SDS011;68963;52.138;5.446;2024-02-04T12:49:46;7.60;;;1.42;;
78561;SDS011;68963;52.138;5.446;2024-02-04T12:52:13;5.97;;;1.55;;
78561;SDS011;68963;52.138;5.446;2024-02-04T12:54:42;6.13;;;1.60;;
78561;SDS011;68963;52.138;5.446;2024-02-04T12:57:10;6.78;;;1.42;;
78561;SDS011;68963;52.138;5.446;2024-02-04T12:59:47;9.52;;;1.80;;
78561;SDS011;68963;52.138;5.446;2024-02-04T13:02:13;6.57;;;1.70;;
78561;SDS011;68963;52.138;5.446;2024-02-04T13:04:41;7.97;;;1.70;;
78561;SDS011;68963;52.138;5.446;2024-02-04T13:07:10;5.47;;;1.67;;
78561;SDS011;68963;52.138;5.446;2024-02-04T13:09:40;5.28;;;1.50;;
78561;SDS011;68963;52.138;5.446;2024-02-04T13:12:08;5.90;;;1.30;;
78561;SDS011;68963;52.138;5.446;2024-02-04T13:14:38;8.50;;;1.60;;
78561;SDS011;68963;52.138;5.446;2024-02-04T13:17:05;5.28;;;1.30;;
78561;SDS011;68963;52.138;5.446;2024-02-04T13:19:36;5.30;;;1.20;;
78561;SDS011;68963;52.138;5.446;2024-02-04T13:22:04;6.13;;;1.20;;
78561;SDS011;68963;52.138;5.446;2024-02-04T13:26:59;6.60;;;1.35;;
78561;SDS011;68963;52.138;5.446;2024-02-04T13:29:27;6.07;;;1.50;;
78561;SDS011;68963;52.138;5.446;2024-02-04T13:31:54;5.25;;;1.42;;
78561;SDS011;68963;52.138;5.446;2024-02-04T13:34:24;6.90;;;1.30;;
78561;SDS011;68963;52.138;5.446;2024-02-04T13:36:50;4.38;;;1.15;;
78561;SDS011;68963;52.138;5.446;2024-02-04T13:39:17;5.22;;;1.40;;
78561;SDS011;68963;52.138;5.446;2024-02-04T13:41:44;4.75;;;1.30;;
78561;SDS011;68963;52.138;5.446;2024-02-04T13:44:11;6.00;;;1.60;;
78561;SDS011;68963;52.138;5.446;2024-02-04T13:46:37;7.00;;;1.65;;
78561;SDS011;68963;52.138;5.446;2024-02-04T13:49:08;5.90;;;2.03;;
78561;SDS011;68963;52.138;5.446;2024-02-04T13:51:35;4.90;;;1.60;;
78561;SDS011;68963;52.138;5.446;2024-02-04T13:54:10;4.78;;;1.45;;
78561;SDS011;68963;52.138;5.446;2024-02-04T13:56:37;7.85;;;1.60;;
78561;SDS011;68963;52.138;5.446;2024-02-04T13:59:04;6.82;;;1.92;;
78561;SDS011;68963;52.138;5.446;2024-02-04T14:01:31;8.00;;;1.65;;
78561;SDS011;68963;52.138;5.446;2024-02-04T14:03:58;10.30;;;2.22;;
78561;SDS011;68963;52.138;5.446;2024-02-04T14:06:24;7.97;;;2.17;;
78561;SDS011;68963;52.138;5.446;2024-02-04T14:08:51;7.30;;;2.70;;
78561;SDS011;68963;52.138;5.446;2024-02-04T14:11:17;7.95;;;2.75;;
78561;SDS011;68963;52.138;5.446;2024-02-04T14:13:44;9.52;;;3.17;;
78561;SDS011;68963;52.138;5.446;2024-02-04T14:16:11;11.85;;;3.55;;
78561;SDS011;68963;52.138;5.446;2024-02-04T14:18:37;11.00;;;3.10;;
78561;SDS011;68963;52.138;5.446;2024-02-04T14:21:06;10.40;;;3.45;;
78561;SDS011;68963;52.138;5.446;2024-02-04T14:23:33;15.80;;;6.05;;
78561;SDS011;68963;52.138;5.446;2024-02-04T14:26:00;10.75;;;4.32;;
78561;SDS011;68963;52.138;5.446;2024-02-04T14:28:26;13.98;;;3.85;;
78561;SDS011;68963;52.138;5.446;2024-02-04T14:30:53;11.10;;;3.90;;
78561;SDS011;68963;52.138;5.446;2024-02-04T14:33:23;11.05;;;4.00;;
78561;SDS011;68963;52.138;5.446;2024-02-04T14:35:50;11.20;;;3.92;;
78561;SDS011;68963;52.138;5.446;2024-02-04T14:38:16;14.60;;;7.72;;
78561;SDS011;68963;52.138;5.446;2024-02-04T14:40:43;11.70;;;3.85;;
78561;SDS011;68963;52.138;5.446;2024-02-04T14:43:09;11.77;;;3.70;;
78561;SDS011;68963;52.138;5.446;2024-02-04T14:45:36;10.38;;;3.72;;
78561;SDS011;68963;52.138;5.446;2024-02-04T14:48:03;10.90;;;3.50;;
78561;SDS011;68963;52.138;5.446;2024-02-04T14:50:30;10.88;;;3.78;;
78561;SDS011;68963;52.138;5.446;2024-02-04T14:52:57;10.13;;;3.55;;
78561;SDS011;68963;52.138;5.446;2024-02-04T14:55:23;9.68;;;2.83;;
78561;SDS011;68963;52.138;5.446;2024-02-04T14:57:50;9.60;;;3.13;;
78561;SDS011;68963;52.138;5.446;2024-02-04T15:00:17;9.82;;;2.90;;